createdAt,value
2019-06-01T00:00:38.225Z,93.98
2019-06-01T00:01:38.335Z,94.35
2019-06-01T00:02:38.635Z,94.26
2019-06-01T00:03:38.317Z,94.64
2019-06-01T00:04:38.692Z,94.17
2019-06-01T00:05:38.471Z,93.69
2019-06-01T00:06:38.655Z,94.26
2019-06-01T00:07:38.707Z,94.93
2019-06-01T00:08:40.194Z,94.64
2019-06-01T00:09:39.010Z,95.17
2019-06-01T00:10:38.954Z,94.45
2019-06-01T00:11:39.206Z,95.36
2019-06-01T00:12:39.304Z,94.21
2019-06-01T00:13:39.409Z,94.89
2019-06-01T00:14:39.561Z,95.36
2019-06-01T00:15:38.167Z,94.60
2019-06-01T00:16:38.157Z,94.60
2019-06-01T00:17:38.155Z,95.17
2019-06-01T00:18:38.154Z,94.50
2019-06-01T00:19:38.148Z,95.94
2019-06-01T00:20:38.149Z,95.94
2019-06-01T00:21:38.143Z,95.75
2019-06-01T00:22:38.140Z,95.07
2019-06-01T00:23:38.139Z,94.98
2019-06-01T00:24:38.128Z,95.94
2019-06-01T00:25:38.124Z,95.56
2019-06-01T00:26:38.118Z,95.17
2019-06-01T00:27:38.113Z,95.17
2019-06-01T00:28:38.112Z,94.79
2019-06-01T00:29:38.108Z,94.98
2019-06-01T00:30:38.101Z,95.07
2019-06-01T00:31:38.096Z,94.79
2019-06-01T00:32:38.100Z,94.89
2019-06-01T00:33:38.094Z,94.79
2019-06-01T00:34:38.090Z,94.69
2019-06-01T00:35:38.087Z,94.79
2019-06-01T00:36:38.077Z,94.21
2019-06-01T00:37:38.076Z,94.12
2019-06-01T00:38:38.073Z,94.50
2019-06-01T00:39:38.065Z,94.79
2019-06-01T00:40:38.064Z,94.60
2019-06-01T00:41:38.066Z,95.56
2019-06-01T00:42:38.058Z,95.17
2019-06-01T00:43:38.052Z,94.50
2019-06-01T00:44:38.046Z,94.60
2019-06-01T00:45:38.040Z,94.69
2019-06-01T00:46:38.041Z,94.79
2019-06-01T00:47:38.043Z,94.79
2019-06-01T00:48:38.029Z,94.89
2019-06-01T00:49:38.054Z,95.46
2019-06-01T00:50:38.020Z,95.36
2019-06-01T00:51:38.012Z,94.89
2019-06-01T00:52:38.016Z,95.70
2019-06-01T00:53:38.010Z,95.17
2019-06-01T00:54:38.007Z,95.22
2019-06-01T00:55:38.002Z,95.07
2019-06-01T00:56:37.993Z,94.69
2019-06-01T00:57:37.990Z,94.84
2019-06-01T00:58:37.986Z,95.31
2019-06-01T00:59:37.982Z,95.70
2019-06-01T01:00:43.669Z,94.84
2019-06-01T01:01:37.978Z,95.70
2019-06-01T01:02:37.977Z,94.93
2019-06-01T01:03:37.984Z,95.61
2019-06-01T01:04:37.967Z,95.31
2019-06-01T01:05:37.963Z,94.65
2019-06-01T01:06:37.956Z,95.98
2019-06-01T01:07:38.333Z,94.45
2019-06-01T01:08:37.942Z,95.22
2019-06-01T01:09:37.947Z,95.89
2019-06-01T01:10:37.934Z,95.70
2019-06-01T01:11:37.928Z,95.70
2019-06-01T01:12:37.929Z,95.89
2019-06-01T01:13:37.964Z,95.79
2019-06-01T01:14:37.921Z,95.70
2019-06-01T01:15:37.920Z,96.18
2019-06-01T01:16:37.910Z,95.61
2019-06-01T01:17:37.909Z,95.41
2019-06-01T01:18:37.904Z,95.22
2019-06-01T01:19:37.900Z,95.41
2019-06-01T01:20:37.902Z,95.41
2019-06-01T01:21:37.887Z,95.89
2019-06-01T01:22:37.881Z,95.79
2019-06-01T01:23:37.875Z,96.27
2019-06-01T01:24:37.875Z,96.56
2019-06-01T01:25:37.899Z,96.66
2019-06-01T01:26:37.867Z,96.94
2019-06-01T01:27:37.863Z,96.84
2019-06-01T01:28:37.852Z,96.75
2019-06-01T01:29:37.849Z,96.94
2019-06-01T01:30:37.858Z,96.56
2019-06-01T01:31:37.842Z,97.33
2019-06-01T01:32:37.879Z,96.75
2019-06-01T01:33:37.837Z,96.56
2019-06-01T01:34:37.829Z,96.75
2019-06-01T01:35:37.824Z,96.37
2019-06-01T01:36:37.826Z,96.37
2019-06-01T01:37:37.817Z,95.51
2019-06-01T01:38:37.817Z,96.27
2019-06-01T01:39:37.806Z,95.41
2019-06-01T01:40:37.807Z,95.41
2019-06-01T01:41:37.792Z,96.18
2019-06-01T01:42:37.793Z,95.61
2019-06-01T01:43:37.790Z,96.27
2019-06-01T01:44:37.786Z,96.37
2019-06-01T01:45:37.784Z,95.31
2019-06-01T01:46:37.775Z,95.27
2019-06-01T01:47:37.770Z,95.17
2019-06-01T01:48:37.760Z,95.36
2019-06-01T01:49:37.757Z,96.13
2019-06-01T01:50:37.761Z,96.42
2019-06-01T01:51:37.750Z,95.27
2019-06-01T01:52:37.743Z,96.22
2019-06-01T01:53:37.739Z,96.13
2019-06-01T01:54:37.737Z,95.65
2019-06-01T01:55:37.731Z,95.84
2019-06-01T01:56:37.732Z,95.84
2019-06-01T01:57:37.726Z,96.51
2019-06-01T01:58:37.722Z,96.51
2019-06-01T01:59:37.718Z,95.94
2019-06-01T02:00:37.708Z,95.56
2019-06-01T02:01:37.704Z,96.70
2019-06-01T02:02:37.710Z,96.13
2019-06-01T02:03:37.698Z,96.80
2019-06-01T02:04:37.691Z,95.56
2019-06-01T02:05:37.689Z,96.80
2019-06-01T02:06:37.682Z,96.42
2019-06-01T02:07:37.672Z,95.65
2019-06-01T02:08:37.709Z,96.51
2019-06-01T02:09:37.668Z,96.42
2019-06-01T02:10:37.665Z,96.80
2019-06-01T02:11:37.669Z,96.32
2019-06-01T02:12:37.650Z,96.51
2019-06-01T02:13:37.648Z,96.70
2019-06-01T02:14:37.643Z,96.18
2019-06-01T02:15:37.639Z,96.32
2019-06-01T02:16:37.641Z,96.51
2019-06-01T02:17:37.635Z,96.42
2019-06-01T02:18:37.626Z,95.94
2019-06-01T02:19:37.621Z,96.32
2019-06-01T02:20:37.614Z,96.61
2019-06-01T02:21:37.609Z,96.51
2019-06-01T02:22:37.606Z,96.61
2019-06-01T02:23:37.601Z,96.51
2019-06-01T02:24:37.593Z,96.51
2019-06-01T02:25:37.588Z,96.84
2019-06-01T02:26:37.585Z,96.32
2019-06-01T02:27:37.584Z,96.61
2019-06-01T02:28:37.578Z,96.37
2019-06-01T02:29:37.573Z,96.56
2019-06-01T02:30:37.591Z,96.27
2019-06-01T02:31:42.472Z,96.37
2019-06-01T02:32:37.568Z,96.08
2019-06-01T02:33:37.551Z,96.75
2019-06-01T02:34:37.544Z,96.84
2019-06-01T02:35:37.539Z,96.37
2019-06-01T02:36:37.539Z,96.27
2019-06-01T02:37:37.533Z,96.56
2019-06-01T02:38:37.524Z,96.08
2019-06-01T02:39:37.520Z,97.23
2019-06-01T02:40:37.519Z,96.84
2019-06-01T02:41:37.526Z,96.56
2019-06-01T02:42:37.514Z,96.66
2019-06-01T02:43:37.511Z,96.75
2019-06-01T02:44:37.498Z,96.75
2019-06-01T02:45:37.495Z,97.33
2019-06-01T02:46:37.489Z,96.75
2019-06-01T02:47:37.485Z,96.66
2019-06-01T02:48:37.487Z,97.52
2019-06-01T02:49:37.475Z,97.13
2019-06-01T02:50:37.472Z,97.04
2019-06-01T02:51:37.462Z,97.42
2019-06-01T02:52:37.463Z,97.23
2019-06-01T02:53:37.461Z,96.75
2019-06-01T02:54:37.449Z,97.23
2019-06-01T02:55:37.443Z,97.04
2019-06-01T02:56:37.445Z,96.94
2019-06-01T02:57:37.437Z,96.94
2019-06-01T02:58:37.431Z,97.33
2019-06-01T02:59:37.423Z,97.52
2019-06-01T03:00:37.422Z,97.42
2019-06-01T03:01:37.423Z,97.33
2019-06-01T03:02:37.408Z,97.42
2019-06-01T03:03:37.412Z,97.42
2019-06-01T03:04:37.402Z,97.13
2019-06-01T03:05:37.399Z,97.42
2019-06-01T03:06:37.392Z,97.23
2019-06-01T03:07:37.389Z,97.23
2019-06-01T03:08:37.378Z,97.23
2019-06-01T03:09:37.374Z,97.99
2019-06-01T03:10:37.371Z,97.99
2019-06-01T03:11:37.372Z,97.71
2019-06-01T03:12:37.359Z,97.90
2019-06-01T03:13:37.352Z,98.57
2019-06-01T03:14:37.346Z,98.28
2019-06-01T03:15:37.341Z,97.71
2019-06-01T03:16:40.083Z,98.04
2019-06-01T03:17:37.342Z,98.18
2019-06-01T03:18:37.337Z,98.04
2019-06-01T03:19:37.323Z,97.90
2019-06-01T03:20:37.315Z,97.99
2019-06-01T03:21:37.310Z,97.52
2019-06-01T03:22:37.319Z,97.61
2019-06-01T03:23:37.304Z,98.24
2019-06-01T03:24:37.306Z,98.52
2019-06-01T03:25:37.297Z,99.00
2019-06-01T03:26:37.289Z,99.10
2019-06-01T03:27:37.283Z,99.19
2019-06-01T03:28:37.283Z,98.81
2019-06-01T03:29:37.281Z,98.90
2019-06-01T03:30:37.271Z,99.29
2019-06-01T03:31:37.269Z,98.90
2019-06-01T03:32:37.692Z,99.38
2019-06-01T03:33:37.254Z,99.29
2019-06-01T03:34:37.246Z,98.66
2019-06-01T03:35:37.242Z,99.05
2019-06-01T03:36:37.240Z,99.15
2019-06-01T03:37:37.244Z,99.24
2019-06-01T03:38:37.235Z,99.52
2019-06-01T03:39:37.227Z,99.24
2019-06-01T03:40:37.223Z,99.05
2019-06-01T03:41:37.215Z,99.24
2019-06-01T03:42:37.214Z,99.15
2019-06-01T03:43:37.210Z,99.38
2019-06-01T03:44:37.199Z,99.10
2019-06-01T03:45:37.197Z,99.00
2019-06-01T03:46:37.190Z,99.10
2019-06-01T03:47:37.184Z,99.10
2019-06-01T03:48:37.185Z,98.62
2019-06-01T03:49:37.181Z,98.52
2019-06-01T03:50:37.177Z,98.43
2019-06-01T03:51:37.174Z,98.52
2019-06-01T03:52:37.165Z,98.52
2019-06-01T03:53:37.160Z,97.95
2019-06-01T03:54:37.154Z,98.33
2019-06-01T03:55:37.148Z,98.24
2019-06-01T03:56:37.148Z,98.28
2019-06-01T03:57:37.143Z,98.33
2019-06-01T03:58:37.132Z,97.90
2019-06-01T03:59:37.131Z,98.10
2019-06-01T04:00:37.129Z,97.71
2019-06-01T04:01:37.125Z,98.00
2019-06-01T04:02:37.123Z,97.61
2019-06-01T04:03:37.116Z,97.80
2019-06-01T04:04:37.113Z,97.90
2019-06-01T04:05:37.106Z,97.52
2019-06-01T04:06:37.100Z,97.80
2019-06-01T04:07:39.009Z,98.10
2019-06-01T04:08:37.097Z,97.42
2019-06-01T04:09:37.092Z,98.19
2019-06-01T04:10:37.136Z,97.42
2019-06-01T04:11:37.081Z,97.47
2019-06-01T04:12:37.072Z,97.14
2019-06-01T04:13:37.068Z,97.61
2019-06-01T04:14:37.130Z,97.56
2019-06-01T04:15:37.063Z,97.47
2019-06-01T04:16:37.057Z,97.76
2019-06-01T04:17:37.067Z,97.38
2019-06-01T04:18:37.052Z,97.56
2019-06-01T04:19:37.046Z,97.09
2019-06-01T04:20:37.056Z,97.18
2019-06-01T04:21:37.041Z,96.61
2019-06-01T04:22:37.040Z,96.89
2019-06-01T04:23:37.035Z,96.89
2019-06-01T04:24:37.037Z,96.99
2019-06-01T04:25:37.023Z,96.99
2019-06-01T04:26:37.016Z,96.99
2019-06-01T04:27:37.015Z,96.42
2019-06-01T04:28:37.016Z,96.80
2019-06-01T04:29:37.011Z,96.80
2019-06-01T04:30:37.009Z,96.89
2019-06-01T04:31:36.999Z,96.89
2019-06-01T04:32:49.559Z,96.99
2019-06-01T04:33:36.996Z,96.42
2019-06-01T04:34:36.994Z,96.85
2019-06-01T04:35:36.989Z,96.80
2019-06-01T04:36:36.982Z,97.14
2019-06-01T04:37:36.983Z,96.42
2019-06-01T04:38:36.976Z,97.33
2019-06-01T04:39:36.971Z,96.85
2019-06-01T04:40:36.971Z,96.27
2019-06-01T04:41:36.967Z,97.04
2019-06-01T04:42:36.969Z,96.66
2019-06-01T04:43:36.961Z,96.47
2019-06-01T04:44:36.970Z,96.75
2019-06-01T04:45:36.948Z,96.47
2019-06-01T04:46:36.949Z,97.04
2019-06-01T04:47:36.945Z,96.47
2019-06-01T04:48:36.938Z,97.14
2019-06-01T04:49:36.936Z,96.66
2019-06-01T04:50:36.942Z,97.14
2019-06-01T04:51:36.928Z,96.85
2019-06-01T04:52:36.935Z,96.89
2019-06-01T04:53:36.929Z,95.94
2019-06-01T04:54:36.921Z,96.80
2019-06-01T04:55:36.919Z,96.51
2019-06-01T04:56:36.913Z,96.70
2019-06-01T04:57:36.908Z,96.27
2019-06-01T04:58:36.909Z,96.13
2019-06-01T04:59:37.858Z,95.94
2019-06-01T05:00:36.910Z,96.42
2019-06-01T05:01:36.904Z,96.03
2019-06-01T05:02:36.898Z,96.32
2019-06-01T05:03:36.895Z,96.32
2019-06-01T05:04:36.898Z,95.75
2019-06-01T05:05:36.894Z,96.37
2019-06-01T05:06:36.895Z,95.84
2019-06-01T05:07:36.890Z,96.18
2019-06-01T05:08:36.881Z,95.12
2019-06-01T05:09:36.882Z,95.41
2019-06-01T05:10:36.878Z,95.60
2019-06-01T05:11:36.876Z,95.31
2019-06-01T05:12:36.880Z,94.74
2019-06-01T05:13:36.878Z,95.07
2019-06-01T05:14:36.881Z,95.75
2019-06-01T05:15:36.878Z,94.93
2019-06-01T05:16:36.874Z,93.96
2019-06-01T05:17:36.872Z,93.39
2019-06-01T05:18:36.878Z,93.68
2019-06-01T05:19:36.873Z,93.49
2019-06-01T05:20:36.883Z,92.76
2019-06-01T05:21:36.868Z,93.00
2019-06-01T05:22:36.873Z,91.13
2019-06-01T05:23:36.863Z,90.26
2019-06-01T05:24:36.870Z,89.72
2019-06-01T05:25:36.866Z,88.23
2019-06-01T05:26:36.866Z,86.69
2019-06-01T05:27:36.869Z,85.86
2019-06-01T05:28:36.862Z,85.42
2019-06-01T05:29:36.866Z,84.22
2019-06-01T05:30:36.869Z,84.03
2019-06-01T05:31:36.868Z,84.22
2019-06-01T05:32:36.875Z,83.98
2019-06-01T05:33:37.831Z,82.86
2019-06-01T05:34:36.872Z,80.78
2019-06-01T05:35:36.874Z,79.81
2019-06-01T05:36:36.878Z,80.20
2019-06-01T05:37:36.882Z,79.17
2019-06-01T05:38:36.889Z,78.94
2019-06-01T05:39:36.882Z,79.00
2019-06-01T05:40:36.883Z,79.12
2019-06-01T05:41:36.889Z,77.92
2019-06-01T05:42:36.889Z,78.36
2019-06-01T05:43:36.891Z,78.69
2019-06-01T05:44:36.899Z,77.22
2019-06-01T05:45:36.923Z,75.78
2019-06-01T05:46:36.916Z,74.69
2019-06-01T05:47:36.912Z,73.47
2019-06-01T05:48:36.916Z,72.02
2019-06-01T05:49:36.917Z,70.95
2019-06-01T05:50:36.930Z,70.76
2019-06-01T05:51:36.948Z,70.79
2019-06-01T05:52:36.928Z,69.92
2019-06-01T05:53:36.933Z,70.50
2019-06-01T05:54:36.934Z,70.25
2019-06-01T05:55:36.940Z,69.57
2019-06-01T05:56:36.951Z,69.15
2019-06-01T05:57:36.953Z,70.25
2019-06-01T05:58:36.960Z,69.08
2019-06-01T05:59:36.963Z,68.54
2019-06-01T06:00:36.967Z,67.95
2019-06-01T06:01:36.971Z,67.69
2019-06-01T06:02:36.976Z,67.31
2019-06-01T06:03:40.301Z,66.95
2019-06-01T06:04:36.989Z,66.82
2019-06-01T06:05:36.995Z,65.95
2019-06-01T06:06:36.995Z,65.69
2019-06-01T06:07:37.000Z,65.79
2019-06-01T06:08:37.026Z,64.75
2019-06-01T06:09:37.056Z,64.07
2019-06-01T06:10:37.026Z,63.52
2019-06-01T06:11:37.031Z,63.56
2019-06-01T06:12:37.035Z,63.91
2019-06-01T06:13:37.042Z,65.01
2019-06-01T06:14:37.044Z,64.33
2019-06-01T06:15:37.053Z,64.92
2019-06-01T06:16:37.062Z,64.98
2019-06-01T06:17:37.071Z,63.62
2019-06-01T06:18:37.077Z,61.34
2019-06-01T06:19:37.122Z,58.77
2019-06-01T06:20:37.087Z,57.60
2019-06-01T06:21:37.093Z,57.43
2019-06-01T06:22:37.104Z,56.29
2019-06-01T06:23:37.110Z,55.32
2019-06-01T06:24:37.114Z,54.60
2019-06-01T06:25:39.620Z,54.53
2019-06-01T06:26:37.132Z,54.39
2019-06-01T06:27:37.140Z,53.85
2019-06-01T06:28:37.151Z,53.61
2019-06-01T06:29:37.160Z,52.75
2019-06-01T06:30:37.171Z,52.90
2019-06-01T06:31:37.180Z,52.86
2019-06-01T06:32:37.186Z,52.25
2019-06-01T06:33:37.200Z,51.93
2019-06-01T06:34:37.203Z,51.22
2019-06-01T06:35:37.207Z,50.93
2019-06-01T06:36:37.227Z,50.73
2019-06-01T06:37:37.232Z,50.75
2019-06-01T06:38:37.235Z,51.49
2019-06-01T06:39:37.251Z,50.92
2019-06-01T06:40:37.260Z,52.92
2019-06-01T06:41:37.279Z,53.41
2019-06-01T06:42:37.281Z,53.34
2019-06-01T06:43:37.296Z,52.97
2019-06-01T06:44:37.298Z,52.64
2019-06-01T06:45:37.309Z,51.90
2019-06-01T06:46:37.328Z,51.27
2019-06-01T06:47:37.338Z,50.46
2019-06-01T06:48:37.360Z,49.26
2019-06-01T06:49:37.356Z,50.83
2019-06-01T06:50:37.377Z,50.59
2019-06-01T06:51:37.379Z,49.41
2019-06-01T06:52:37.381Z,49.70
2019-06-01T06:53:37.392Z,48.75
2019-06-01T06:54:37.414Z,48.36
2019-06-01T06:55:37.425Z,48.60
2019-06-01T06:56:37.426Z,48.85
2019-06-01T06:57:37.436Z,47.52
2019-06-01T06:58:37.469Z,46.91
2019-06-01T06:59:37.470Z,46.34
2019-06-01T07:00:37.480Z,46.76
2019-06-01T07:01:37.489Z,45.66
2019-06-01T07:02:37.514Z,45.29
2019-06-01T07:03:37.515Z,45.14
2019-06-01T07:04:37.536Z,45.63
2019-06-01T07:05:37.548Z,44.13
2019-06-01T07:06:37.557Z,44.47
2019-06-01T07:07:37.571Z,44.47
2019-06-01T07:08:37.572Z,43.80
2019-06-01T07:09:37.587Z,43.24
2019-06-01T07:10:37.601Z,44.26
2019-06-01T07:11:37.606Z,44.26
2019-06-01T07:12:37.636Z,44.45
2019-06-01T07:13:37.637Z,43.66
2019-06-01T07:14:37.675Z,43.96
2019-06-01T07:15:37.670Z,43.99
2019-06-01T07:16:37.674Z,45.19
2019-06-01T07:17:37.690Z,45.27
2019-06-01T07:18:37.698Z,45.21
2019-06-01T07:19:37.709Z,44.77
2019-06-01T07:20:37.724Z,43.79
2019-06-01T07:21:37.747Z,44.27
2019-06-01T07:22:37.753Z,44.40
2019-06-01T07:23:37.779Z,43.83
2019-06-01T07:24:37.771Z,43.00
2019-06-01T07:25:37.786Z,43.38
2019-06-01T07:26:37.800Z,45.75
2019-06-01T07:27:37.823Z,46.67
2019-06-01T07:28:37.823Z,46.77
2019-06-01T07:29:37.836Z,46.98
2019-06-01T07:30:49.813Z,47.11
2019-06-01T07:31:37.864Z,46.66
2019-06-01T07:32:37.881Z,44.08
2019-06-01T07:33:37.893Z,43.19
2019-06-01T07:34:42.367Z,43.27
2019-06-01T07:35:37.917Z,43.24
2019-06-01T07:36:37.929Z,42.33
2019-06-01T07:37:37.942Z,41.59
2019-06-01T07:38:37.952Z,42.28
2019-06-01T07:39:37.964Z,42.25
2019-06-01T07:40:37.983Z,43.51
2019-06-01T07:41:37.996Z,44.17
2019-06-01T07:42:38.006Z,44.07
2019-06-01T07:43:38.021Z,45.18
2019-06-01T07:44:38.038Z,46.41
2019-06-01T07:45:38.124Z,47.33
2019-06-01T07:46:38.070Z,47.45
2019-06-01T07:47:38.082Z,46.74
2019-06-01T07:48:38.096Z,45.29
2019-06-01T07:49:38.105Z,45.30
2019-06-01T07:50:38.122Z,45.57
2019-06-01T07:51:38.132Z,46.59
2019-06-01T07:52:38.150Z,46.05
2019-06-01T07:53:38.161Z,45.27
2019-06-01T07:54:38.176Z,45.15
2019-06-01T07:55:38.187Z,44.41
2019-06-01T07:56:38.195Z,44.02
2019-06-01T07:57:42.421Z,44.27
2019-06-01T07:58:38.229Z,43.72
2019-06-01T07:59:38.242Z,44.38
2019-06-01T08:00:38.274Z,44.53
2019-06-01T08:01:38.266Z,44.08
2019-06-01T08:02:38.282Z,43.12
2019-06-01T08:03:38.298Z,42.49
2019-06-01T08:04:52.184Z,41.63
2019-06-01T08:05:38.329Z,40.63
2019-06-01T08:06:44.918Z,40.27
2019-06-01T08:07:38.354Z,39.11
2019-06-01T08:08:38.368Z,38.99
2019-06-01T08:09:38.380Z,39.20
2019-06-01T08:10:38.397Z,39.47
2019-06-01T08:11:38.412Z,40.80
2019-06-01T08:12:38.431Z,41.63
2019-06-01T08:13:38.446Z,41.84
2019-06-01T08:14:38.456Z,42.30
2019-06-01T08:15:38.470Z,41.04
2019-06-01T08:16:38.492Z,39.62
2019-06-01T08:17:38.504Z,38.35
2019-06-01T08:18:38.519Z,38.90
2019-06-01T08:19:38.534Z,37.77
2019-06-01T08:20:38.543Z,35.93
2019-06-01T08:21:38.557Z,35.02
2019-06-01T08:22:38.578Z,35.16
2019-06-01T08:23:38.592Z,33.78
2019-06-01T08:24:38.606Z,34.01
2019-06-01T08:25:38.624Z,32.58
2019-06-01T08:26:38.641Z,33.59
2019-06-01T08:27:38.655Z,35.38
2019-06-01T08:28:38.668Z,35.52
2019-06-01T08:29:38.750Z,35.35
2019-06-01T08:30:38.702Z,34.69
2019-06-01T08:31:38.719Z,33.54
2019-06-01T08:32:38.730Z,32.96
2019-06-01T08:33:38.746Z,32.28
2019-06-01T08:34:38.761Z,32.01
2019-06-01T08:35:38.776Z,31.91
2019-06-01T08:36:38.795Z,31.70
2019-06-01T08:37:38.811Z,31.90
2019-06-01T08:38:38.831Z,31.90
2019-06-01T08:39:38.845Z,31.28
2019-06-01T08:40:38.855Z,32.58
2019-06-01T08:41:38.873Z,32.15
2019-06-01T08:42:38.896Z,32.83
2019-06-01T08:43:38.910Z,33.95
2019-06-01T08:44:38.927Z,36.09
2019-06-01T08:45:38.951Z,37.45
2019-06-01T08:46:38.953Z,38.54
2019-06-01T08:47:38.969Z,39.01
2019-06-01T08:48:38.988Z,38.49
2019-06-01T08:49:39.002Z,39.28
2019-06-01T08:50:39.015Z,39.97
2019-06-01T08:51:39.028Z,40.35
2019-06-01T08:52:39.039Z,40.45
2019-06-01T08:53:39.052Z,40.55
2019-06-01T08:54:39.065Z,40.43
2019-06-01T08:55:39.078Z,40.80
2019-06-01T08:56:39.097Z,41.11
2019-06-01T08:57:39.108Z,40.64
2019-06-01T08:58:39.130Z,40.86
2019-06-01T08:59:39.134Z,39.60
2019-06-01T09:00:39.146Z,38.69
2019-06-01T09:01:39.166Z,37.36
2019-06-01T09:02:39.178Z,36.43
2019-06-01T09:03:45.477Z,34.80
2019-06-01T09:04:39.196Z,33.75
2019-06-01T09:05:39.208Z,32.29
2019-06-01T09:06:39.220Z,32.32
2019-06-01T09:07:39.233Z,31.45
2019-06-01T09:08:39.251Z,30.36
2019-06-01T09:09:39.267Z,30.29
2019-06-01T09:10:39.282Z,30.22
2019-06-01T09:11:39.299Z,28.75
2019-06-01T09:12:39.308Z,28.28
2019-06-01T09:13:39.325Z,27.38
2019-06-01T09:14:39.338Z,27.70
2019-06-01T09:15:39.374Z,27.91
2019-06-01T09:16:39.379Z,27.09
2019-06-01T09:17:39.395Z,27.87
2019-06-01T09:18:39.440Z,28.36
2019-06-01T09:19:39.424Z,28.36
2019-06-01T09:20:39.488Z,28.57
2019-06-01T09:21:39.466Z,28.67
2019-06-01T09:22:39.483Z,27.88
2019-06-01T09:23:39.499Z,27.64
2019-06-01T09:24:39.537Z,28.42
2019-06-01T09:25:39.532Z,28.44
2019-06-01T09:26:39.569Z,28.16
2019-06-01T09:27:39.570Z,28.57
2019-06-01T09:28:39.591Z,27.50
2019-06-01T09:29:39.609Z,26.97
2019-06-01T09:30:39.625Z,27.77
2019-06-01T09:31:39.674Z,27.39
2019-06-01T09:32:39.658Z,26.31
2019-06-01T09:33:39.685Z,26.31
2019-06-01T09:34:39.703Z,26.22
2019-06-01T09:35:53.644Z,25.67
2019-06-01T09:36:39.736Z,28.60
2019-06-01T09:37:39.755Z,30.30
2019-06-01T09:38:39.782Z,30.27
2019-06-01T09:39:39.799Z,29.27
2019-06-01T09:40:39.832Z,28.97
2019-06-01T09:41:39.847Z,29.05
2019-06-01T09:42:39.865Z,29.05
2019-06-01T09:43:39.882Z,29.43
2019-06-01T09:44:39.906Z,30.59
2019-06-01T09:45:39.922Z,31.38
2019-06-01T09:46:39.939Z,31.40
2019-06-01T09:47:39.962Z,31.13
2019-06-01T09:48:39.985Z,30.36
2019-06-01T09:49:40.013Z,30.36
2019-06-01T09:50:40.020Z,29.21
2019-06-01T09:51:40.039Z,28.64
2019-06-01T09:52:40.073Z,27.43
2019-06-01T09:53:40.082Z,28.58
2019-06-01T09:54:40.106Z,29.65
2019-06-01T09:55:40.123Z,29.82
2019-06-01T09:56:40.139Z,30.39
2019-06-01T09:57:40.159Z,31.17
2019-06-01T09:58:40.178Z,31.45
2019-06-01T09:59:40.195Z,32.33
2019-06-01T10:00:43.555Z,33.04
2019-06-01T10:01:40.234Z,32.43
2019-06-01T10:02:40.249Z,33.28
2019-06-01T10:03:40.264Z,33.26
2019-06-01T10:04:40.280Z,33.17
2019-06-01T10:05:40.292Z,33.80
2019-06-01T10:06:40.311Z,33.01
2019-06-01T10:07:41.536Z,33.04
2019-06-01T10:08:40.339Z,32.45
2019-06-01T10:09:40.358Z,32.03
2019-06-01T10:10:40.374Z,31.95
2019-06-01T10:11:40.388Z,32.67
2019-06-01T10:12:40.409Z,32.49
2019-06-01T10:13:40.424Z,32.21
2019-06-01T10:14:40.438Z,31.15
2019-06-01T10:15:40.455Z,29.68
2019-06-01T10:16:40.465Z,29.37
2019-06-01T10:17:40.487Z,29.74
2019-06-01T10:18:40.500Z,30.42
2019-06-01T10:19:40.516Z,31.23
2019-06-01T10:20:41.407Z,30.56
2019-06-01T10:21:40.553Z,30.77
2019-06-01T10:22:41.606Z,30.86
2019-06-01T10:23:40.581Z,30.55
2019-06-01T10:24:41.398Z,31.46
2019-06-01T10:25:40.618Z,31.07
2019-06-01T10:26:41.880Z,29.20
2019-06-01T10:27:40.645Z,29.10
2019-06-01T10:28:41.905Z,28.80
2019-06-01T10:29:40.674Z,28.91
2019-06-01T10:30:41.715Z,28.84
2019-06-01T10:31:41.580Z,28.34
2019-06-01T10:32:42.013Z,28.16
2019-06-01T10:33:40.775Z,27.36
2019-06-01T10:34:41.825Z,27.80
2019-06-01T10:35:40.781Z,28.19
2019-06-01T10:36:40.796Z,29.37
2019-06-01T10:37:41.733Z,29.46
2019-06-01T10:38:41.492Z,28.60
2019-06-01T10:39:41.401Z,29.00
2019-06-01T10:40:41.805Z,28.22
2019-06-01T10:41:41.566Z,28.74
2019-06-01T10:42:41.860Z,28.74
2019-06-01T10:43:41.773Z,29.74
2019-06-01T10:44:45.423Z,29.85
2019-06-01T10:45:41.967Z,29.37
2019-06-01T10:46:42.152Z,28.78
2019-06-01T10:47:42.019Z,28.49
2019-06-01T10:48:42.139Z,29.31
2019-06-01T10:49:42.108Z,29.69
2019-06-01T10:50:42.547Z,30.49
2019-06-01T10:51:42.270Z,30.15
2019-06-01T10:52:42.472Z,30.81
2019-06-01T10:53:42.445Z,31.16
2019-06-01T10:54:42.367Z,31.90
2019-06-01T10:55:42.360Z,33.18
2019-06-01T10:56:42.475Z,33.51
2019-06-01T10:57:42.684Z,34.46
2019-06-01T10:58:56.656Z,34.64
2019-06-01T10:59:41.186Z,35.15
2019-06-01T11:00:46.713Z,35.43
2019-06-01T11:01:41.238Z,35.57
2019-06-01T11:02:41.234Z,34.51
2019-06-01T11:03:41.248Z,33.51
2019-06-01T11:04:41.275Z,34.08
2019-06-01T11:05:41.287Z,35.02
2019-06-01T11:06:46.491Z,34.73
2019-06-01T11:07:41.317Z,34.63
2019-06-01T11:08:41.335Z,34.94
2019-06-01T11:09:41.347Z,34.66
2019-06-01T11:10:41.368Z,34.68
2019-06-01T11:11:41.383Z,34.46
2019-06-01T11:12:41.397Z,33.78
2019-06-01T11:13:41.413Z,33.34
2019-06-01T11:14:41.427Z,33.54
2019-06-01T11:15:41.442Z,34.71
2019-06-01T11:16:41.852Z,36.11
2019-06-01T11:17:41.476Z,35.89
2019-06-01T11:18:41.878Z,34.81
2019-06-01T11:19:42.056Z,35.17
2019-06-01T11:20:41.597Z,34.48
2019-06-01T11:21:41.772Z,35.47
2019-06-01T11:22:41.654Z,36.16
2019-06-01T11:23:45.231Z,36.36
2019-06-01T11:24:41.704Z,36.04
2019-06-01T11:25:41.737Z,36.00
2019-06-01T11:26:41.982Z,37.37
2019-06-01T11:27:41.954Z,38.16
2019-06-01T11:28:42.258Z,38.40
2019-06-01T11:29:50.823Z,38.99
2019-06-01T11:30:41.895Z,38.99
2019-06-01T11:31:42.144Z,39.56
2019-06-01T11:32:43.361Z,40.25
2019-06-01T11:33:42.048Z,40.25
2019-06-01T11:34:42.463Z,41.14
2019-06-01T11:35:41.722Z,41.16
2019-06-01T11:37:03.241Z,40.76
2019-06-01T11:37:42.368Z,40.55
2019-06-01T11:38:42.563Z,38.95
2019-06-01T11:39:42.634Z,39.72
2019-06-01T11:40:42.775Z,40.31
2019-06-01T11:41:42.635Z,40.90
2019-06-01T11:42:42.952Z,40.19
2019-06-01T11:43:42.732Z,40.39
2019-06-01T11:44:42.819Z,41.16
2019-06-01T11:45:42.917Z,42.25
2019-06-01T11:46:43.005Z,42.53
2019-06-01T11:47:42.938Z,41.84
2019-06-01T11:48:43.357Z,42.51
2019-06-01T11:49:42.864Z,43.39
2019-06-01T11:50:43.034Z,42.68
2019-06-01T11:51:43.180Z,42.88
2019-06-01T11:52:43.195Z,42.98
2019-06-01T11:53:43.351Z,42.88
2019-06-01T11:54:43.204Z,43.18
2019-06-01T11:55:43.271Z,43.05
2019-06-01T11:56:43.071Z,42.76
2019-06-01T11:57:41.942Z,43.13
2019-06-01T11:58:41.944Z,42.23
2019-06-01T11:59:41.950Z,43.09
2019-06-01T12:00:41.965Z,43.48
2019-06-01T12:01:41.971Z,45.25
2019-06-01T12:02:41.982Z,46.72
2019-06-01T12:03:41.992Z,46.03
2019-06-01T12:04:42.020Z,45.66
2019-06-01T12:05:42.166Z,45.56
2019-06-01T12:06:42.108Z,45.47
2019-06-01T12:07:42.049Z,44.58
2019-06-01T12:08:42.327Z,43.68
2019-06-01T12:09:42.034Z,43.88
2019-06-01T12:10:43.159Z,44.37
2019-06-01T12:11:42.210Z,45.34
2019-06-01T12:12:42.432Z,45.56
2019-06-01T12:13:42.297Z,45.47
2019-06-01T12:14:42.624Z,44.95
2019-06-01T12:15:42.328Z,45.15
2019-06-01T12:16:42.606Z,45.54
2019-06-01T12:17:42.850Z,45.23
2019-06-01T12:18:42.662Z,45.54
2019-06-01T12:19:42.673Z,46.62
2019-06-01T12:20:42.783Z,46.81
2019-06-01T12:21:43.040Z,46.81
2019-06-01T12:22:42.924Z,47.20
2019-06-01T12:23:43.208Z,46.98
2019-06-01T12:24:43.054Z,45.42
2019-06-01T12:25:42.239Z,45.20
2019-06-01T12:26:43.436Z,44.98
2019-06-01T12:27:42.153Z,45.57
2019-06-01T12:28:42.516Z,46.45
2019-06-01T12:29:42.188Z,45.28
2019-06-01T12:30:42.173Z,45.47
2019-06-01T12:31:42.179Z,45.76
2019-06-01T12:32:42.189Z,46.55
2019-06-01T12:33:42.196Z,46.94
2019-06-01T12:34:42.205Z,48.38
2019-06-01T12:35:42.204Z,47.14
2019-06-01T12:36:42.687Z,47.14
2019-06-01T12:38:00.856Z,46.48
2019-06-01T12:38:42.220Z,47.46
2019-06-01T12:39:42.362Z,47.75
2019-06-01T12:40:43.273Z,48.55
2019-06-01T12:41:43.449Z,49.14
2019-06-01T12:42:43.732Z,49.24
2019-06-01T12:43:43.546Z,49.14
2019-06-01T12:44:43.591Z,49.24
2019-06-01T12:45:42.265Z,49.63
2019-06-01T12:46:42.274Z,48.55
2019-06-01T12:47:42.278Z,47.58
2019-06-01T12:48:42.280Z,48.68
2019-06-01T12:49:42.287Z,47.58
2019-06-01T12:50:42.290Z,49.14
2019-06-01T12:51:42.620Z,49.33
2019-06-01T12:52:42.319Z,50.02